sensor_id;sensor_type;location;lat;lon;timestamp;pressure;altitude;pressure_sealevel;temperature
20733;BMP180;10527;52.124;5.196;2023-07-30T00:02:23;100741.00;;;28.50
20733;BMP180;10527;52.124;5.196;2023-07-30T00:04:50;100741.00;;;28.50
20733;BMP180;10527;52.124;5.196;2023-07-30T00:07:17;100741.00;;;28.50
20733;BMP180;10527;52.124;5.196;2023-07-30T00:09:44;100741.00;;;28.40
20733;BMP180;10527;52.124;5.196;2023-07-30T00:12:11;100744.00;;;28.40
20733;BMP180;10527;52.124;5.196;2023-07-30T00:14:37;100745.00;;;28.40
20733;BMP180;10527;52.124;5.196;2023-07-30T00:17:04;100751.00;;;28.40
20733;BMP180;10527;52.124;5.196;2023-07-30T00:19:31;100746.00;;;28.30
20733;BMP180;10527;52.124;5.196;2023-07-30T00:21:58;100748.00;;;28.30
20733;BMP180;10527;52.124;5.196;2023-07-30T00:24:25;100744.00;;;28.30
20733;BMP180;10527;52.124;5.196;2023-07-30T00:26:52;100751.00;;;28.30
20733;BMP180;10527;52.124;5.196;2023-07-30T00:29:19;100756.00;;;28.30
20733;BMP180;10527;52.124;5.196;2023-07-30T00:31:46;100747.00;;;28.30
20733;BMP180;10527;52.124;5.196;2023-07-30T00:34:13;100750.00;;;28.20
20733;BMP180;10527;52.124;5.196;2023-07-30T00:36:40;100750.00;;;28.20
20733;BMP180;10527;52.124;5.196;2023-07-30T00:39:07;100751.00;;;28.20
20733;BMP180;10527;52.124;5.196;2023-07-30T00:41:36;100749.00;;;28.20
20733;BMP180;10527;52.124;5.196;2023-07-30T00:44:04;100743.00;;;28.20
20733;BMP180;10527;52.124;5.196;2023-07-30T00:46:31;100742.00;;;28.20
20733;BMP180;10527;52.124;5.196;2023-07-30T00:48:58;100740.00;;;28.20
20733;BMP180;10527;52.124;5.196;2023-07-30T00:51:27;100742.00;;;28.20
20733;BMP180;10527;52.124;5.196;2023-07-30T00:53:56;100748.00;;;28.10
20733;BMP180;10527;52.124;5.196;2023-07-30T00:56:23;100749.00;;;28.10
20733;BMP180;10527;52.124;5.196;2023-07-30T00:58:52;100748.00;;;28.10
20733;BMP180;10527;52.124;5.196;2023-07-30T01:01:19;100761.00;;;28.10
20733;BMP180;10527;52.124;5.196;2023-07-30T01:03:46;100758.00;;;28.10
20733;BMP180;10527;52.124;5.196;2023-07-30T01:06:12;100752.00;;;28.10
20733;BMP180;10527;52.124;5.196;2023-07-30T01:08:39;100752.00;;;28.00
20733;BMP180;10527;52.124;5.196;2023-07-30T01:11:08;100763.00;;;28.00
20733;BMP180;10527;52.124;5.196;2023-07-30T01:13:35;100768.00;;;28.00
20733;BMP180;10527;52.124;5.196;2023-07-30T01:16:03;100759.00;;;28.00
20733;BMP180;10527;52.124;5.196;2023-07-30T01:18:30;100765.00;;;28.00
20733;BMP180;10527;52.124;5.196;2023-07-30T01:20:58;100762.00;;;27.90
20733;BMP180;10527;52.124;5.196;2023-07-30T01:23:26;100759.00;;;27.90
20733;BMP180;10527;52.124;5.196;2023-07-30T01:26:07;100774.00;;;27.90
20733;BMP180;10527;52.124;5.196;2023-07-30T01:28:42;100770.00;;;27.90
20733;BMP180;10527;52.124;5.196;2023-07-30T01:31:15;100773.00;;;27.90
20733;BMP180;10527;52.124;5.196;2023-07-30T01:33:47;100769.00;;;27.80
20733;BMP180;10527;52.124;5.196;2023-07-30T01:36:16;100771.00;;;27.80
20733;BMP180;10527;52.124;5.196;2023-07-30T01:38:44;100772.00;;;27.80
20733;BMP180;10527;52.124;5.196;2023-07-30T01:41:11;100756.00;;;27.80
20733;BMP180;10527;52.124;5.196;2023-07-30T01:43:37;100761.00;;;27.80
20733;BMP180;10527;52.124;5.196;2023-07-30T01:46:04;100767.00;;;27.80
20733;BMP180;10527;52.124;5.196;2023-07-30T01:48:31;100769.00;;;27.80
20733;BMP180;10527;52.124;5.196;2023-07-30T01:51:00;100763.00;;;27.80
20733;BMP180;10527;52.124;5.196;2023-07-30T01:53:27;100774.00;;;27.80
20733;BMP180;10527;52.124;5.196;2023-07-30T01:55:54;100774.00;;;27.80
20733;BMP180;10527;52.124;5.196;2023-07-30T01:58:21;100763.00;;;27.80
20733;BMP180;10527;52.124;5.196;2023-07-30T02:00:48;100774.00;;;27.80
20733;BMP180;10527;52.124;5.196;2023-07-30T02:03:15;100770.00;;;27.80
20733;BMP180;10527;52.124;5.196;2023-07-30T02:05:42;100777.00;;;27.80
20733;BMP180;10527;52.124;5.196;2023-07-30T02:08:08;100769.00;;;27.70
20733;BMP180;10527;52.124;5.196;2023-07-30T02:10:36;100768.00;;;27.70
20733;BMP180;10527;52.124;5.196;2023-07-30T02:13:03;100765.00;;;27.70
20733;BMP180;10527;52.124;5.196;2023-07-30T02:15:29;100772.00;;;27.70
20733;BMP180;10527;52.124;5.196;2023-07-30T02:17:56;100773.00;;;27.80
20733;BMP180;10527;52.124;5.196;2023-07-30T02:20:23;100774.00;;;27.80
20733;BMP180;10527;52.124;5.196;2023-07-30T02:22:50;100772.00;;;27.70
20733;BMP180;10527;52.124;5.196;2023-07-30T02:25:17;100770.00;;;27.70
20733;BMP180;10527;52.124;5.196;2023-07-30T02:27:44;100778.00;;;27.70
20733;BMP180;10527;52.124;5.196;2023-07-30T02:30:11;100768.00;;;27.70
20733;BMP180;10527;52.124;5.196;2023-07-30T02:32:38;100769.00;;;27.70
20733;BMP180;10527;52.124;5.196;2023-07-30T02:35:05;100774.00;;;27.70
20733;BMP180;10527;52.124;5.196;2023-07-30T02:37:34;100760.00;;;27.70
20733;BMP180;10527;52.124;5.196;2023-07-30T02:40:01;100777.00;;;27.70
20733;BMP180;10527;52.124;5.196;2023-07-30T02:42:31;100761.00;;;27.70
20733;BMP180;10527;52.124;5.196;2023-07-30T02:44:58;100763.00;;;27.70
20733;BMP180;10527;52.124;5.196;2023-07-30T02:47:25;100761.00;;;27.70
20733;BMP180;10527;52.124;5.196;2023-07-30T02:49:54;100765.00;;;27.70
20733;BMP180;10527;52.124;5.196;2023-07-30T02:52:21;100762.00;;;27.60
20733;BMP180;10527;52.124;5.196;2023-07-30T02:54:48;100763.00;;;27.60
20733;BMP180;10527;52.124;5.196;2023-07-30T02:57:15;100760.00;;;27.60
20733;BMP180;10527;52.124;5.196;2023-07-30T02:59:41;100762.00;;;27.60
20733;BMP180;10527;52.124;5.196;2023-07-30T03:02:08;100766.00;;;27.50
20733;BMP180;10527;52.124;5.196;2023-07-30T03:04:35;100763.00;;;27.50
20733;BMP180;10527;52.124;5.196;2023-07-30T03:07:03;100770.00;;;27.50
20733;BMP180;10527;52.124;5.196;2023-07-30T03:09:30;100758.00;;;27.50
20733;BMP180;10527;52.124;5.196;2023-07-30T03:11:56;100759.00;;;27.50
20733;BMP180;10527;52.124;5.196;2023-07-30T03:14:23;100768.00;;;27.50
20733;BMP180;10527;52.124;5.196;2023-07-30T03:16:50;100756.00;;;27.50
20733;BMP180;10527;52.124;5.196;2023-07-30T03:19:17;100763.00;;;27.50
20733;BMP180;10527;52.124;5.196;2023-07-30T03:21:44;100768.00;;;27.50
20733;BMP180;10527;52.124;5.196;2023-07-30T03:24:10;100766.00;;;27.50
20733;BMP180;10527;52.124;5.196;2023-07-30T03:26:37;100762.00;;;27.40
20733;BMP180;10527;52.124;5.196;2023-07-30T03:29:04;100765.00;;;27.40
20733;BMP180;10527;52.124;5.196;2023-07-30T03:31:31;100761.00;;;27.40
20733;BMP180;10527;52.124;5.196;2023-07-30T03:33:58;100772.00;;;27.40
20733;BMP180;10527;52.124;5.196;2023-07-30T03:36:25;100765.00;;;27.40
20733;BMP180;10527;52.124;5.196;2023-07-30T03:38:52;100768.00;;;27.40
20733;BMP180;10527;52.124;5.196;2023-07-30T03:41:19;100772.00;;;27.40
20733;BMP180;10527;52.124;5.196;2023-07-30T03:43:45;100775.00;;;27.40
20733;BMP180;10527;52.124;5.196;2023-07-30T03:46:12;100768.00;;;27.30
20733;BMP180;10527;52.124;5.196;2023-07-30T03:48:39;100775.00;;;27.30
20733;BMP180;10527;52.124;5.196;2023-07-30T03:51:07;100787.00;;;27.30
20733;BMP180;10527;52.124;5.196;2023-07-30T03:53:36;100780.00;;;27.30
20733;BMP180;10527;52.124;5.196;2023-07-30T03:56:03;100772.00;;;27.30
20733;BMP180;10527;52.124;5.196;2023-07-30T03:58:30;100773.00;;;27.30
20733;BMP180;10527;52.124;5.196;2023-07-30T04:00:57;100778.00;;;27.30
20733;BMP180;10527;52.124;5.196;2023-07-30T04:03:24;100780.00;;;27.30
20733;BMP180;10527;52.124;5.196;2023-07-30T04:05:51;100774.00;;;27.30
20733;BMP180;10527;52.124;5.196;2023-07-30T04:08:19;100768.00;;;27.30
20733;BMP180;10527;52.124;5.196;2023-07-30T04:10:46;100777.00;;;27.30
20733;BMP180;10527;52.124;5.196;2023-07-30T04:13:13;100780.00;;;27.30
20733;BMP180;10527;52.124;5.196;2023-07-30T04:15:40;100788.00;;;27.30
20733;BMP180;10527;52.124;5.196;2023-07-30T04:18:07;100785.00;;;27.30
20733;BMP180;10527;52.124;5.196;2023-07-30T04:20:34;100790.00;;;27.30
20733;BMP180;10527;52.124;5.196;2023-07-30T04:23:01;100792.00;;;27.30
20733;BMP180;10527;52.124;5.196;2023-07-30T04:25:27;100789.00;;;27.30
20733;BMP180;10527;52.124;5.196;2023-07-30T04:27:54;100793.00;;;27.30
20733;BMP180;10527;52.124;5.196;2023-07-30T04:30:21;100790.00;;;27.30
20733;BMP180;10527;52.124;5.196;2023-07-30T04:32:48;100789.00;;;27.30
20733;BMP180;10527;52.124;5.196;2023-07-30T04:35:15;100786.00;;;27.30
20733;BMP180;10527;52.124;5.196;2023-07-30T04:37:42;100797.00;;;27.30
20733;BMP180;10527;52.124;5.196;2023-07-30T04:40:10;100795.00;;;27.30
20733;BMP180;10527;52.124;5.196;2023-07-30T04:42:36;100798.00;;;27.30
20733;BMP180;10527;52.124;5.196;2023-07-30T04:45:04;100794.00;;;27.30
20733;BMP180;10527;52.124;5.196;2023-07-30T04:47:31;100802.00;;;27.30
20733;BMP180;10527;52.124;5.196;2023-07-30T04:49:58;100798.00;;;27.30
20733;BMP180;10527;52.124;5.196;2023-07-30T04:52:24;100797.00;;;27.30
20733;BMP180;10527;52.124;5.196;2023-07-30T04:54:51;100795.00;;;27.30
20733;BMP180;10527;52.124;5.196;2023-07-30T04:57:18;100799.00;;;27.30
20733;BMP180;10527;52.124;5.196;2023-07-30T04:59:45;100799.00;;;27.30
20733;BMP180;10527;52.124;5.196;2023-07-30T05:02:11;100801.00;;;27.40
20733;BMP180;10527;52.124;5.196;2023-07-30T05:04:38;100798.00;;;27.40
20733;BMP180;10527;52.124;5.196;2023-07-30T05:07:05;100804.00;;;27.40
20733;BMP180;10527;52.124;5.196;2023-07-30T05:09:34;100814.00;;;27.40
20733;BMP180;10527;52.124;5.196;2023-07-30T05:12:01;100806.00;;;27.50
20733;BMP180;10527;52.124;5.196;2023-07-30T05:14:28;100814.00;;;27.50
20733;BMP180;10527;52.124;5.196;2023-07-30T05:16:55;100810.00;;;27.50
20733;BMP180;10527;52.124;5.196;2023-07-30T05:19:22;100807.00;;;27.50
20733;BMP180;10527;52.124;5.196;2023-07-30T05:21:49;100808.00;;;27.50
20733;BMP180;10527;52.124;5.196;2023-07-30T05:24:15;100808.00;;;27.50
20733;BMP180;10527;52.124;5.196;2023-07-30T05:26:42;100810.00;;;27.60
20733;BMP180;10527;52.124;5.196;2023-07-30T05:29:09;100803.00;;;27.60
20733;BMP180;10527;52.124;5.196;2023-07-30T05:31:36;100804.00;;;27.60
20733;BMP180;10527;52.124;5.196;2023-07-30T05:34:04;100807.00;;;27.60
20733;BMP180;10527;52.124;5.196;2023-07-30T05:36:31;100812.00;;;27.60
20733;BMP180;10527;52.124;5.196;2023-07-30T05:38:58;100817.00;;;27.60
20733;BMP180;10527;52.124;5.196;2023-07-30T05:41:25;100811.00;;;27.70
20733;BMP180;10527;52.124;5.196;2023-07-30T05:43:52;100817.00;;;27.70
20733;BMP180;10527;52.124;5.196;2023-07-30T05:46:18;100820.00;;;27.70
20733;BMP180;10527;52.124;5.196;2023-07-30T05:48:45;100812.00;;;27.70
20733;BMP180;10527;52.124;5.196;2023-07-30T05:51:12;100807.00;;;27.70
20733;BMP180;10527;52.124;5.196;2023-07-30T05:53:39;100813.00;;;27.80
20733;BMP180;10527;52.124;5.196;2023-07-30T05:56:06;100806.00;;;27.80
20733;BMP180;10527;52.124;5.196;2023-07-30T05:58:33;100818.00;;;27.80
20733;BMP180;10527;52.124;5.196;2023-07-30T06:01:02;100816.00;;;27.90
20733;BMP180;10527;52.124;5.196;2023-07-30T06:03:29;100822.00;;;27.90
20733;BMP180;10527;52.124;5.196;2023-07-30T06:05:56;100826.00;;;27.90
20733;BMP180;10527;52.124;5.196;2023-07-30T06:08:23;100816.00;;;27.90
20733;BMP180;10527;52.124;5.196;2023-07-30T06:10:50;100814.00;;;28.00
20733;BMP180;10527;52.124;5.196;2023-07-30T06:13:17;100815.00;;;28.00
20733;BMP180;10527;52.124;5.196;2023-07-30T06:15:43;100817.00;;;28.00
20733;BMP180;10527;52.124;5.196;2023-07-30T06:18:10;100823.00;;;28.00
20733;BMP180;10527;52.124;5.196;2023-07-30T06:20:37;100819.00;;;28.00
20733;BMP180;10527;52.124;5.196;2023-07-30T06:23:04;100817.00;;;28.10
20733;BMP180;10527;52.124;5.196;2023-07-30T06:25:31;100820.00;;;28.10
20733;BMP180;10527;52.124;5.196;2023-07-30T06:27:59;100822.00;;;28.10
20733;BMP180;10527;52.124;5.196;2023-07-30T06:30:26;100818.00;;;28.20
20733;BMP180;10527;52.124;5.196;2023-07-30T06:32:53;100827.00;;;28.20
20733;BMP180;10527;52.124;5.196;2023-07-30T06:35:20;100821.00;;;28.20
20733;BMP180;10527;52.124;5.196;2023-07-30T06:37:47;100821.00;;;28.20
20733;BMP180;10527;52.124;5.196;2023-07-30T06:40:14;100819.00;;;28.20
20733;BMP180;10527;52.124;5.196;2023-07-30T06:42:41;100812.00;;;28.30
20733;BMP180;10527;52.124;5.196;2023-07-30T06:45:08;100803.00;;;28.30
20733;BMP180;10527;52.124;5.196;2023-07-30T06:47:35;100811.00;;;28.30
20733;BMP180;10527;52.124;5.196;2023-07-30T06:50:04;100815.00;;;28.30
20733;BMP180;10527;52.124;5.196;2023-07-30T06:52:31;100822.00;;;28.30
20733;BMP180;10527;52.124;5.196;2023-07-30T06:54:59;100819.00;;;28.30
20733;BMP180;10527;52.124;5.196;2023-07-30T06:57:25;100824.00;;;28.30
20733;BMP180;10527;52.124;5.196;2023-07-30T06:59:53;100822.00;;;28.30
20733;BMP180;10527;52.124;5.196;2023-07-30T07:02:21;100827.00;;;28.30
20733;BMP180;10527;52.124;5.196;2023-07-30T07:04:49;100833.00;;;28.30
20733;BMP180;10527;52.124;5.196;2023-07-30T07:07:17;100834.00;;;28.30
20733;BMP180;10527;52.124;5.196;2023-07-30T07:09:43;100828.00;;;28.30
20733;BMP180;10527;52.124;5.196;2023-07-30T07:12:10;100823.00;;;28.30
20733;BMP180;10527;52.124;5.196;2023-07-30T07:14:37;100831.00;;;28.30
20733;BMP180;10527;52.124;5.196;2023-07-30T07:17:05;100834.00;;;28.30
20733;BMP180;10527;52.124;5.196;2023-07-30T07:19:34;100837.00;;;28.30
20733;BMP180;10527;52.124;5.196;2023-07-30T07:22:06;100819.00;;;28.30
20733;BMP180;10527;52.124;5.196;2023-07-30T07:24:32;100827.00;;;28.40
20733;BMP180;10527;52.124;5.196;2023-07-30T07:26:59;100819.00;;;28.40
20733;BMP180;10527;52.124;5.196;2023-07-30T07:29:26;100828.00;;;28.40
20733;BMP180;10527;52.124;5.196;2023-07-30T07:31:53;100835.00;;;28.40
20733;BMP180;10527;52.124;5.196;2023-07-30T07:34:20;100832.00;;;28.50
20733;BMP180;10527;52.124;5.196;2023-07-30T07:36:48;100833.00;;;28.50
20733;BMP180;10527;52.124;5.196;2023-07-30T07:39:15;100827.00;;;28.60
20733;BMP180;10527;52.124;5.196;2023-07-30T07:41:44;100830.00;;;28.60
20733;BMP180;10527;52.124;5.196;2023-07-30T07:44:11;100822.00;;;28.60
20733;BMP180;10527;52.124;5.196;2023-07-30T07:46:37;100826.00;;;28.70
20733;BMP180;10527;52.124;5.196;2023-07-30T07:49:04;100827.00;;;28.70
20733;BMP180;10527;52.124;5.196;2023-07-30T07:51:32;100839.00;;;28.80
20733;BMP180;10527;52.124;5.196;2023-07-30T07:54:02;100838.00;;;28.80
20733;BMP180;10527;52.124;5.196;2023-07-30T07:56:30;100848.00;;;28.80
20733;BMP180;10527;52.124;5.196;2023-07-30T07:58:58;100838.00;;;28.90
20733;BMP180;10527;52.124;5.196;2023-07-30T08:01:25;100837.00;;;28.90
20733;BMP180;10527;52.124;5.196;2023-07-30T08:03:52;100846.00;;;29.00
20733;BMP180;10527;52.124;5.196;2023-07-30T08:06:19;100836.00;;;29.00
20733;BMP180;10527;52.124;5.196;2023-07-30T08:08:45;100851.00;;;29.00
20733;BMP180;10527;52.124;5.196;2023-07-30T08:11:12;100846.00;;;29.00
20733;BMP180;10527;52.124;5.196;2023-07-30T08:13:50;100848.00;;;29.00
20733;BMP180;10527;52.124;5.196;2023-07-30T08:16:17;100838.00;;;29.00
20733;BMP180;10527;52.124;5.196;2023-07-30T08:18:44;100843.00;;;29.00
20733;BMP180;10527;52.124;5.196;2023-07-30T08:21:11;100839.00;;;28.90
20733;BMP180;10527;52.124;5.196;2023-07-30T08:23:37;100847.00;;;28.90
20733;BMP180;10527;52.124;5.196;2023-07-30T08:26:04;100849.00;;;28.90
20733;BMP180;10527;52.124;5.196;2023-07-30T08:28:31;100843.00;;;28.90
20733;BMP180;10527;52.124;5.196;2023-07-30T08:31:01;100839.00;;;28.90
20733;BMP180;10527;52.124;5.196;2023-07-30T08:33:31;100853.00;;;28.90
20733;BMP180;10527;52.124;5.196;2023-07-30T08:36:18;100845.00;;;28.90
20733;BMP180;10527;52.124;5.196;2023-07-30T08:38:48;100844.00;;;28.90
20733;BMP180;10527;52.124;5.196;2023-07-30T08:41:15;100851.00;;;28.90
20733;BMP180;10527;52.124;5.196;2023-07-30T08:43:44;100851.00;;;29.00
20733;BMP180;10527;52.124;5.196;2023-07-30T08:46:16;100838.00;;;29.00
20733;BMP180;10527;52.124;5.196;2023-07-30T08:48:43;100831.00;;;29.10
20733;BMP180;10527;52.124;5.196;2023-07-30T08:51:14;100845.00;;;29.20
20733;BMP180;10527;52.124;5.196;2023-07-30T08:53:42;100851.00;;;29.30
20733;BMP180;10527;52.124;5.196;2023-07-30T08:56:10;100858.00;;;29.40
20733;BMP180;10527;52.124;5.196;2023-07-30T08:58:38;100851.00;;;29.40
20733;BMP180;10527;52.124;5.196;2023-07-30T09:01:09;100851.00;;;29.40
20733;BMP180;10527;52.124;5.196;2023-07-30T09:03:39;100855.00;;;29.40
20733;BMP180;10527;52.124;5.196;2023-07-30T09:06:07;100849.00;;;29.40
20733;BMP180;10527;52.124;5.196;2023-07-30T09:08:34;100844.00;;;29.40
20733;BMP180;10527;52.124;5.196;2023-07-30T09:11:11;100857.00;;;29.50
20733;BMP180;10527;52.124;5.196;2023-07-30T09:13:41;100865.00;;;29.50
20733;BMP180;10527;52.124;5.196;2023-07-30T09:16:28;100869.00;;;29.50
20733;BMP180;10527;52.124;5.196;2023-07-30T09:18:55;100871.00;;;29.50
20733;BMP180;10527;52.124;5.196;2023-07-30T09:21:33;100886.00;;;29.60
20733;BMP180;10527;52.124;5.196;2023-07-30T09:24:03;100882.00;;;29.60
20733;BMP180;10527;52.124;5.196;2023-07-30T09:26:47;100881.00;;;29.50
20733;BMP180;10527;52.124;5.196;2023-07-30T09:29:14;100882.00;;;29.50
20733;BMP180;10527;52.124;5.196;2023-07-30T09:31:53;100887.00;;;29.50
20733;BMP180;10527;52.124;5.196;2023-07-30T09:34:24;100885.00;;;29.50
20733;BMP180;10527;52.124;5.196;2023-07-30T09:36:54;100881.00;;;29.60
20733;BMP180;10527;52.124;5.196;2023-07-30T09:39:22;100893.00;;;29.60
20733;BMP180;10527;52.124;5.196;2023-07-30T09:42:00;100896.00;;;29.60
20733;BMP180;10527;52.124;5.196;2023-07-30T09:44:27;100887.00;;;29.70
20733;BMP180;10527;52.124;5.196;2023-07-30T09:46:54;100892.00;;;29.80
20733;BMP180;10527;52.124;5.196;2023-07-30T09:49:21;100892.00;;;29.90
20733;BMP180;10527;52.124;5.196;2023-07-30T09:51:52;100916.00;;;30.00
20733;BMP180;10527;52.124;5.196;2023-07-30T09:54:19;100906.00;;;30.10
20733;BMP180;10527;52.124;5.196;2023-07-30T09:56:46;100913.00;;;30.20
20733;BMP180;10527;52.124;5.196;2023-07-30T09:59:12;100908.00;;;30.40
20733;BMP180;10527;52.124;5.196;2023-07-30T10:01:48;100909.00;;;30.50
20733;BMP180;10527;52.124;5.196;2023-07-30T10:04:21;100916.00;;;30.60
20733;BMP180;10527;52.124;5.196;2023-07-30T10:07:10;100920.00;;;30.70
20733;BMP180;10527;52.124;5.196;2023-07-30T10:09:42;100924.00;;;30.80
20733;BMP180;10527;52.124;5.196;2023-07-30T10:12:16;100934.00;;;30.80
20733;BMP180;10527;52.124;5.196;2023-07-30T10:14:43;100919.00;;;30.90
20733;BMP180;10527;52.124;5.196;2023-07-30T10:17:12;100925.00;;;30.90
20733;BMP180;10527;52.124;5.196;2023-07-30T10:19:39;100923.00;;;30.90
20733;BMP180;10527;52.124;5.196;2023-07-30T10:25:03;100926.00;;;31.00
20733;BMP180;10527;52.124;5.196;2023-07-30T10:27:44;100927.00;;;31.00
20733;BMP180;10527;52.124;5.196;2023-07-30T10:30:19;100933.00;;;31.00
20733;BMP180;10527;52.124;5.196;2023-07-30T10:35:46;100944.00;;;31.00
20733;BMP180;10527;52.124;5.196;2023-07-30T10:43:46;100942.00;;;31.10
20733;BMP180;10527;52.124;5.196;2023-07-30T10:46:16;100941.00;;;31.10
20733;BMP180;10527;52.124;5.196;2023-07-30T10:48:47;100936.00;;;31.20
20733;BMP180;10527;52.124;5.196;2023-07-30T10:51:19;100942.00;;;31.30
20733;BMP180;10527;52.124;5.196;2023-07-30T10:53:48;100939.00;;;31.30
20733;BMP180;10527;52.124;5.196;2023-07-30T10:56:21;100945.00;;;31.50
20733;BMP180;10527;52.124;5.196;2023-07-30T10:58:53;100949.00;;;31.50
20733;BMP180;10527;52.124;5.196;2023-07-30T11:01:20;100958.00;;;31.60
20733;BMP180;10527;52.124;5.196;2023-07-30T11:03:50;100955.00;;;31.60
20733;BMP180;10527;52.124;5.196;2023-07-30T11:06:26;100957.00;;;31.60
20733;BMP180;10527;52.124;5.196;2023-07-30T11:08:54;100963.00;;;31.50
20733;BMP180;10527;52.124;5.196;2023-07-30T11:11:21;100956.00;;;31.50
20733;BMP180;10527;52.124;5.196;2023-07-30T11:13:51;100974.00;;;31.50
20733;BMP180;10527;52.124;5.196;2023-07-30T11:16:18;100963.00;;;31.40
20733;BMP180;10527;52.124;5.196;2023-07-30T11:18:45;100969.00;;;31.40
20733;BMP180;10527;52.124;5.196;2023-07-30T11:21:17;100990.00;;;31.30
20733;BMP180;10527;52.124;5.196;2023-07-30T11:23:45;100992.00;;;31.20
20733;BMP180;10527;52.124;5.196;2023-07-30T11:26:19;100979.00;;;31.20
20733;BMP180;10527;52.124;5.196;2023-07-30T11:28:47;100991.00;;;31.10
20733;BMP180;10527;52.124;5.196;2023-07-30T11:31:18;100992.00;;;31.10
20733;BMP180;10527;52.124;5.196;2023-07-30T11:33:48;100986.00;;;31.10
20733;BMP180;10527;52.124;5.196;2023-07-30T11:36:21;100976.00;;;31.20
20733;BMP180;10527;52.124;5.196;2023-07-30T11:38:50;100989.00;;;31.20
20733;BMP180;10527;52.124;5.196;2023-07-30T11:41:19;101004.00;;;31.30
20733;BMP180;10527;52.124;5.196;2023-07-30T11:43:48;100987.00;;;31.30
20733;BMP180;10527;52.124;5.196;2023-07-30T11:46:17;100985.00;;;31.40
20733;BMP180;10527;52.124;5.196;2023-07-30T11:48:48;100987.00;;;31.50
20733;BMP180;10527;52.124;5.196;2023-07-30T11:51:23;100987.00;;;31.50
20733;BMP180;10527;52.124;5.196;2023-07-30T11:54:21;100983.00;;;31.60
20733;BMP180;10527;52.124;5.196;2023-07-30T11:56:56;100987.00;;;31.70
20733;BMP180;10527;52.124;5.196;2023-07-30T11:59:23;100994.00;;;31.80
20733;BMP180;10527;52.124;5.196;2023-07-30T12:01:50;100987.00;;;31.90
20733;BMP180;10527;52.124;5.196;2023-07-30T12:04:17;101007.00;;;32.00
20733;BMP180;10527;52.124;5.196;2023-07-30T12:06:49;101001.00;;;32.10
20733;BMP180;10527;52.124;5.196;2023-07-30T12:09:26;100999.00;;;32.00
20733;BMP180;10527;52.124;5.196;2023-07-30T12:12:01;100999.00;;;32.00
20733;BMP180;10527;52.124;5.196;2023-07-30T12:14:43;100988.00;;;32.00
20733;BMP180;10527;52.124;5.196;2023-07-30T12:17:10;100994.00;;;32.00
20733;BMP180;10527;52.124;5.196;2023-07-30T12:19:37;101003.00;;;32.10
20733;BMP180;10527;52.124;5.196;2023-07-30T12:22:04;101000.00;;;32.10
20733;BMP180;10527;52.124;5.196;2023-07-30T12:24:31;101009.00;;;32.20
20733;BMP180;10527;52.124;5.196;2023-07-30T12:26:59;101005.00;;;32.30
20733;BMP180;10527;52.124;5.196;2023-07-30T12:29:27;101002.00;;;32.30
20733;BMP180;10527;52.124;5.196;2023-07-30T12:31:54;101002.00;;;32.30
20733;BMP180;10527;52.124;5.196;2023-07-30T12:34:23;101007.00;;;32.30
20733;BMP180;10527;52.124;5.196;2023-07-30T12:36:50;101021.00;;;32.40
20733;BMP180;10527;52.124;5.196;2023-07-30T12:39:17;101001.00;;;32.40
20733;BMP180;10527;52.124;5.196;2023-07-30T12:41:44;101008.00;;;32.40
20733;BMP180;10527;52.124;5.196;2023-07-30T12:44:11;101003.00;;;32.40
20733;BMP180;10527;52.124;5.196;2023-07-30T12:46:38;101011.00;;;32.50
20733;BMP180;10527;52.124;5.196;2023-07-30T12:49:06;100998.00;;;32.50
20733;BMP180;10527;52.124;5.196;2023-07-30T12:51:33;101012.00;;;32.60
20733;BMP180;10527;52.124;5.196;2023-07-30T12:54:00;101021.00;;;32.70
20733;BMP180;10527;52.124;5.196;2023-07-30T12:56:27;101032.00;;;32.70
20733;BMP180;10527;52.124;5.196;2023-07-30T12:58:54;101006.00;;;32.70
20733;BMP180;10527;52.124;5.196;2023-07-30T13:01:21;101012.00;;;32.70
20733;BMP180;10527;52.124;5.196;2023-07-30T13:03:50;101006.00;;;32.60
20733;BMP180;10527;52.124;5.196;2023-07-30T13:06:20;101006.00;;;32.60
20733;BMP180;10527;52.124;5.196;2023-07-30T13:08:47;101003.00;;;32.60
20733;BMP180;10527;52.124;5.196;2023-07-30T13:11:14;101008.00;;;32.70
20733;BMP180;10527;52.124;5.196;2023-07-30T13:13:41;101018.00;;;32.70
20733;BMP180;10527;52.124;5.196;2023-07-30T13:16:08;101033.00;;;32.70
20733;BMP180;10527;52.124;5.196;2023-07-30T13:18:35;101018.00;;;32.70
20733;BMP180;10527;52.124;5.196;2023-07-30T13:21:02;101028.00;;;32.60
20733;BMP180;10527;52.124;5.196;2023-07-30T13:23:29;101041.00;;;32.60
20733;BMP180;10527;52.124;5.196;2023-07-30T13:25:57;101040.00;;;32.60
20733;BMP180;10527;52.124;5.196;2023-07-30T13:28:24;101037.00;;;32.60
20733;BMP180;10527;52.124;5.196;2023-07-30T13:30:51;101031.00;;;32.50
20733;BMP180;10527;52.124;5.196;2023-07-30T13:33:19;101036.00;;;32.50
20733;BMP180;10527;52.124;5.196;2023-07-30T13:35:46;101031.00;;;32.50
20733;BMP180;10527;52.124;5.196;2023-07-30T13:38:13;101040.00;;;32.50
20733;BMP180;10527;52.124;5.196;2023-07-30T13:40:40;101032.00;;;32.50
20733;BMP180;10527;52.124;5.196;2023-07-30T13:43:07;101024.00;;;32.50
20733;BMP180;10527;52.124;5.196;2023-07-30T13:45:34;101027.00;;;32.50
20733;BMP180;10527;52.124;5.196;2023-07-30T13:48:00;101027.00;;;32.50
20733;BMP180;10527;52.124;5.196;2023-07-30T13:50:28;101022.00;;;32.50
20733;BMP180;10527;52.124;5.196;2023-07-30T13:52:54;101020.00;;;32.40
20733;BMP180;10527;52.124;5.196;2023-07-30T13:55:21;101015.00;;;32.40
20733;BMP180;10527;52.124;5.196;2023-07-30T13:57:48;101030.00;;;32.40
20733;BMP180;10527;52.124;5.196;2023-07-30T14:00:15;101035.00;;;32.40
20733;BMP180;10527;52.124;5.196;2023-07-30T14:02:43;101033.00;;;32.40
20733;BMP180;10527;52.124;5.196;2023-07-30T14:05:11;101038.00;;;32.40
20733;BMP180;10527;52.124;5.196;2023-07-30T14:07:37;101042.00;;;32.40
20733;BMP180;10527;52.124;5.196;2023-07-30T14:10:05;101036.00;;;32.40
20733;BMP180;10527;52.124;5.196;2023-07-30T14:12:32;101052.00;;;32.40
20733;BMP180;10527;52.124;5.196;2023-07-30T14:14:59;101037.00;;;32.40